createdAt,value
2017-10-02T00:01:02.673Z,10.10
2017-10-02T00:03:30.994Z,10.00
2017-10-02T00:05:59.299Z,10.00
2017-10-02T00:08:27.565Z,10.00
2017-10-02T00:10:56.655Z,10.10
2017-10-02T00:13:24.930Z,10.10
2017-10-02T00:15:53.350Z,10.10
2017-10-02T00:18:21.643Z,10.10
2017-10-02T00:20:49.938Z,10.10
2017-10-02T00:23:18.220Z,10.10
2017-10-02T00:25:46.508Z,10.10
2017-10-02T00:28:14.805Z,10.10
2017-10-02T00:30:43.085Z,10.10
2017-10-02T00:33:12.167Z,10.30
2017-10-02T00:35:41.222Z,10.30
2017-10-02T00:38:10.278Z,10.30
2017-10-02T00:40:38.590Z,10.30
2017-10-02T00:43:06.906Z,10.30
2017-10-02T00:45:35.217Z,10.40
2017-10-02T00:48:03.530Z,10.40
2017-10-02T00:50:31.847Z,10.40
2017-10-02T00:53:00.921Z,10.50
2017-10-02T00:55:29.297Z,10.40
2017-10-02T00:57:57.662Z,10.50
2017-10-02T01:00:26.806Z,10.60
2017-10-02T01:02:55.190Z,10.60
2017-10-02T01:05:24.297Z,10.70
2017-10-02T01:07:52.672Z,10.60
2017-10-02T01:10:21.034Z,10.70
2017-10-02T01:12:50.124Z,10.80
2017-10-02T01:15:18.478Z,10.80
2017-10-02T01:17:46.801Z,10.90
2017-10-02T01:20:15.156Z,10.90
2017-10-02T01:22:43.516Z,10.90
2017-10-02T01:25:11.830Z,11.00
2017-10-02T01:27:40.291Z,10.90
2017-10-02T01:30:08.663Z,10.90
2017-10-02T01:32:36.947Z,10.90
2017-10-02T01:35:05.994Z,10.80
2017-10-02T01:37:35.374Z,10.90
2017-10-02T01:42:38.128Z,10.90
2017-10-02T01:45:06.433Z,10.90
2017-10-02T01:47:34.722Z,10.90
2017-10-02T01:50:03.010Z,10.90
2017-10-02T01:52:31.300Z,10.90
2017-10-02T01:54:59.609Z,10.90
2017-10-02T01:57:27.887Z,10.90
2017-10-02T01:59:56.205Z,10.90
2017-10-02T02:02:24.510Z,10.90
2017-10-02T02:04:52.796Z,10.90
2017-10-02T02:07:21.074Z,11.00
2017-10-02T02:09:50.146Z,11.00
2017-10-02T02:12:18.433Z,11.00
2017-10-02T02:14:46.750Z,10.90
2017-10-02T02:17:15.034Z,10.90
2017-10-02T02:19:43.346Z,10.90
2017-10-02T02:22:11.658Z,10.90
2017-10-02T02:24:39.949Z,11.00
2017-10-02T02:27:08.264Z,11.00
2017-10-02T02:29:36.546Z,11.00
2017-10-02T02:32:04.826Z,11.00
2017-10-02T02:34:33.874Z,11.10
2017-10-02T02:37:02.625Z,11.00
2017-10-02T02:39:30.941Z,11.10
2017-10-02T02:41:59.353Z,11.10
2017-10-02T02:44:28.406Z,11.20
2017-10-02T02:46:56.681Z,11.20
2017-10-02T02:49:24.990Z,11.30
2017-10-02T02:51:53.286Z,11.30
2017-10-02T02:54:22.362Z,11.30
2017-10-02T02:56:50.669Z,11.30
2017-10-02T02:59:18.961Z,11.30
2017-10-02T03:01:47.256Z,11.30
2017-10-02T03:04:15.563Z,11.30
2017-10-02T03:06:43.838Z,11.30
2017-10-02T03:09:12.126Z,11.30
2017-10-02T03:11:40.435Z,11.30
2017-10-02T03:14:08.746Z,11.30
2017-10-02T03:16:37.029Z,11.30
2017-10-02T03:19:05.451Z,11.30
2017-10-02T03:21:33.739Z,11.30
2017-10-02T03:24:02.213Z,11.30
2017-10-02T03:26:31.270Z,11.40
2017-10-02T03:28:59.552Z,11.40
2017-10-02T03:31:27.894Z,11.40
2017-10-02T03:33:56.179Z,11.50
2017-10-02T03:36:24.450Z,11.60
2017-10-02T03:38:53.495Z,11.60
2017-10-02T03:41:21.770Z,11.60
2017-10-02T03:43:50.846Z,11.60
2017-10-02T03:46:19.146Z,11.60
2017-10-02T03:48:47.458Z,11.60
2017-10-02T03:51:15.743Z,11.60
2017-10-02T03:53:44.042Z,11.60
2017-10-02T03:56:12.319Z,11.60
2017-10-02T03:58:40.618Z,11.60
2017-10-02T04:01:09.025Z,11.50
2017-10-02T04:03:37.306Z,11.40
2017-10-02T04:06:06.354Z,11.10
2017-10-02T04:08:34.684Z,11.10
2017-10-02T04:11:02.959Z,11.00
2017-10-02T04:13:31.265Z,10.90
2017-10-02T04:16:00.593Z,10.80
2017-10-02T04:18:28.909Z,10.80
2017-10-02T04:20:57.255Z,10.70
2017-10-02T04:23:26.306Z,10.50
2017-10-02T04:25:54.590Z,10.50
2017-10-02T04:28:22.870Z,10.50
2017-10-02T04:30:51.950Z,10.50
2017-10-02T04:33:20.263Z,10.50
2017-10-02T04:35:48.566Z,10.40
2017-10-02T04:38:16.993Z,10.40
2017-10-02T04:40:45.266Z,10.40
2017-10-02T04:43:14.324Z,10.40
2017-10-02T04:45:43.382Z,10.40
2017-10-02T04:48:11.669Z,10.40
2017-10-02T04:50:39.988Z,10.40
2017-10-02T04:53:08.287Z,10.40
2017-10-02T04:55:36.638Z,10.40
2017-10-02T04:58:04.922Z,10.40
2017-10-02T05:00:33.237Z,10.30
2017-10-02T05:03:01.550Z,10.30
2017-10-02T05:05:29.862Z,10.40
2017-10-02T05:07:58.941Z,10.40
2017-10-02T05:10:27.302Z,10.40
2017-10-02T05:12:55.714Z,10.40
2017-10-02T05:15:24.007Z,10.40
2017-10-02T05:17:52.340Z,10.40
2017-10-02T05:20:20.623Z,10.40
2017-10-02T05:22:48.940Z,10.50
2017-10-02T05:25:17.219Z,10.50
2017-10-02T05:27:45.494Z,10.60
2017-10-02T05:30:14.566Z,10.70
2017-10-02T05:32:42.850Z,10.60
2017-10-02T05:35:11.310Z,10.70
2017-10-02T05:37:39.594Z,10.70
2017-10-02T05:40:07.902Z,10.70
2017-10-02T05:42:36.222Z,10.80
2017-10-02T05:45:10.411Z,10.70
2017-10-02T05:47:38.701Z,10.70
2017-10-02T05:50:06.974Z,10.70
2017-10-02T05:52:36.031Z,10.70
2017-10-02T05:55:04.307Z,10.70
2017-10-02T05:57:32.591Z,10.70
2017-10-02T06:00:01.639Z,10.80
2017-10-02T06:02:29.922Z,10.70
2017-10-02T06:04:58.210Z,10.80
2017-10-02T06:07:27.280Z,10.80
2017-10-02T06:09:55.564Z,10.80
2017-10-02T06:12:23.846Z,10.90
2017-10-02T06:14:52.129Z,10.90
2017-10-02T06:17:21.183Z,11.00
2017-10-02T06:19:49.492Z,11.00
2017-10-02T06:22:17.781Z,11.00
2017-10-02T06:24:46.062Z,11.00
2017-10-02T06:27:15.106Z,11.10
2017-10-02T06:29:43.394Z,11.10
2017-10-02T06:32:11.685Z,11.10
2017-10-02T06:34:40.734Z,11.10
2017-10-02T06:37:09.037Z,11.10
2017-10-02T06:39:37.329Z,11.20
2017-10-02T06:42:05.601Z,11.20
2017-10-02T06:44:34.652Z,11.30
2017-10-02T06:47:03.715Z,11.30
2017-10-02T06:49:31.990Z,11.30
2017-10-02T06:52:00.287Z,11.30
2017-10-02T06:54:29.014Z,11.30
2017-10-02T06:56:57.327Z,11.30
2017-10-02T06:59:25.611Z,11.30
2017-10-02T07:01:53.898Z,11.30
2017-10-02T07:04:22.183Z,11.40
2017-10-02T07:06:50.476Z,11.40
2017-10-02T07:09:19.514Z,11.50
2017-10-02T07:11:47.808Z,11.40
2017-10-02T07:14:16.522Z,11.50
2017-10-02T07:16:44.816Z,11.50
2017-10-02T07:19:13.227Z,11.40
2017-10-02T07:21:41.510Z,11.40
2017-10-02T07:24:10.567Z,11.50
2017-10-02T07:26:38.847Z,11.40
2017-10-02T07:29:07.134Z,11.50
2017-10-02T07:31:36.182Z,11.60
2017-10-02T07:34:04.470Z,11.50
2017-10-02T07:36:32.789Z,11.50
2017-10-02T07:39:01.068Z,11.60
2017-10-02T07:41:29.344Z,11.60
2017-10-02T07:43:58.390Z,11.60
2017-10-02T07:46:26.715Z,11.60
2017-10-02T07:48:54.986Z,11.60
2017-10-02T07:51:23.275Z,11.70
2017-10-02T07:53:52.320Z,11.90
2017-10-02T07:56:20.598Z,11.90
2017-10-02T07:58:48.877Z,11.90
2017-10-02T08:01:17.166Z,12.00
2017-10-02T08:03:45.443Z,11.90
2017-10-02T08:06:13.751Z,11.90
2017-10-02T08:08:42.123Z,11.90
2017-10-02T08:11:11.158Z,12.00
2017-10-02T08:13:39.434Z,11.90
2017-10-02T08:16:08.473Z,12.00
2017-10-02T08:18:36.784Z,12.00
2017-10-02T08:21:05.070Z,12.00
2017-10-02T08:23:33.353Z,11.90
2017-10-02T08:26:02.514Z,11.90
2017-10-02T08:28:30.795Z,11.90
2017-10-02T08:30:59.078Z,11.90
2017-10-02T08:33:28.123Z,12.00
2017-10-02T08:35:56.402Z,12.00
2017-10-02T08:38:24.695Z,12.10
2017-10-02T08:40:53.746Z,12.10
2017-10-02T08:43:22.030Z,12.10
2017-10-02T08:45:50.309Z,12.20
2017-10-02T08:48:19.361Z,12.20
2017-10-02T08:50:47.658Z,12.20
2017-10-02T08:53:15.938Z,12.20
2017-10-02T08:55:44.990Z,12.10
2017-10-02T08:58:13.274Z,12.10
2017-10-02T09:00:41.687Z,12.00
2017-10-02T09:03:09.994Z,12.10
2017-10-02T09:05:38.261Z,12.10
2017-10-02T09:08:07.323Z,12.20
2017-10-02T09:10:35.606Z,12.20
2017-10-02T09:13:03.889Z,12.10
2017-10-02T09:15:32.937Z,12.10
2017-10-02T09:18:01.354Z,12.10
2017-10-02T09:20:29.629Z,12.10
2017-10-02T09:22:57.922Z,12.20
2017-10-02T09:25:26.205Z,12.20
2017-10-02T09:27:55.258Z,12.20
2017-10-02T09:30:23.542Z,12.20
2017-10-02T09:32:52.594Z,12.30
2017-10-02T09:35:20.898Z,12.30
2017-10-02T09:37:49.173Z,12.30
2017-10-02T09:40:17.453Z,12.20
2017-10-02T09:42:46.510Z,12.10
2017-10-02T09:45:14.795Z,12.10
2017-10-02T09:47:43.364Z,12.10
2017-10-02T09:50:11.654Z,12.10
2017-10-02T09:52:39.947Z,12.10
2017-10-02T09:55:08.234Z,12.20
2017-10-02T09:57:36.523Z,12.20
2017-10-02T10:00:04.837Z,12.20
2017-10-02T10:02:33.137Z,12.30
2017-10-02T10:05:01.434Z,12.40
2017-10-02T10:07:29.743Z,12.50
2017-10-02T10:09:58.045Z,12.50
2017-10-02T10:12:26.356Z,12.40
2017-10-02T10:14:54.633Z,12.40
2017-10-02T10:17:22.920Z,12.40
2017-10-02T10:19:51.223Z,12.40
2017-10-02T10:22:19.506Z,12.40
2017-10-02T10:24:48.573Z,12.40
2017-10-02T10:27:16.862Z,12.40
2017-10-02T10:29:45.208Z,12.40
2017-10-02T10:32:13.487Z,12.40
2017-10-02T10:34:41.795Z,12.40
2017-10-02T10:37:10.112Z,12.40
2017-10-02T10:39:38.402Z,12.40
2017-10-02T10:42:06.698Z,12.40
2017-10-02T10:44:34.992Z,12.40
2017-10-02T10:47:03.285Z,12.40
2017-10-02T10:49:31.582Z,12.40
2017-10-02T10:51:59.869Z,12.50
2017-10-02T10:54:28.146Z,12.50
2017-10-02T10:56:57.194Z,12.60
2017-10-02T10:59:25.489Z,12.60
2017-10-02T11:01:53.772Z,12.70
2017-10-02T11:04:22.809Z,12.80
2017-10-02T11:06:51.105Z,12.80
2017-10-02T11:09:19.407Z,12.90
2017-10-02T11:11:47.693Z,12.90
2017-10-02T11:14:16.766Z,13.00
2017-10-02T11:16:45.082Z,13.00
2017-10-02T11:19:13.364Z,13.00
2017-10-02T11:21:41.653Z,13.00
2017-10-02T11:24:09.935Z,12.90
2017-10-02T11:26:38.219Z,13.00
2017-10-02T11:29:07.292Z,12.90
2017-10-02T11:31:35.574Z,12.90
2017-10-02T11:34:03.889Z,12.90
2017-10-02T11:36:32.174Z,12.90
2017-10-02T11:39:00.458Z,13.00
2017-10-02T11:41:28.733Z,13.00
2017-10-02T11:43:57.817Z,13.10
2017-10-02T11:46:26.101Z,13.10
2017-10-02T11:48:55.155Z,13.30
2017-10-02T11:51:23.441Z,13.30
2017-10-02T11:53:51.725Z,13.40
2017-10-02T11:56:20.006Z,13.50
2017-10-02T11:58:48.300Z,13.40
2017-10-02T12:01:17.346Z,13.40
2017-10-02T12:03:45.621Z,13.40
2017-10-02T12:06:13.909Z,13.40
2017-10-02T12:08:42.953Z,13.40
2017-10-02T12:11:11.228Z,13.40
2017-10-02T12:13:40.282Z,13.10
2017-10-02T12:16:08.599Z,13.10
2017-10-02T12:18:36.891Z,13.00
2017-10-02T12:21:05.173Z,13.00
2017-10-02T12:23:33.471Z,13.10
2017-10-02T12:26:02.593Z,13.30
2017-10-02T12:28:30.888Z,13.30
2017-10-02T12:30:59.941Z,13.60
2017-10-02T12:33:28.349Z,13.50
2017-10-02T12:35:56.631Z,13.70
2017-10-02T12:38:24.926Z,14.10
2017-10-02T12:40:53.203Z,14.30
2017-10-02T12:43:22.249Z,14.50
2017-10-02T12:45:50.587Z,14.50
2017-10-02T12:48:18.870Z,14.60
2017-10-02T12:50:47.174Z,14.60
2017-10-02T12:53:15.466Z,14.70
2017-10-02T12:55:43.795Z,14.90
2017-10-02T12:58:12.072Z,15.10
2017-10-02T13:00:40.354Z,15.20
2017-10-02T13:03:08.661Z,15.40
2017-10-02T13:05:36.950Z,15.30
2017-10-02T13:08:06.004Z,15.10
2017-10-02T13:10:34.320Z,15.00
2017-10-02T13:13:02.597Z,15.10
2017-10-02T13:15:30.890Z,15.10
2017-10-02T13:17:59.161Z,15.10
2017-10-02T13:20:28.219Z,15.20
2017-10-02T13:22:56.506Z,15.20
2017-10-02T13:25:25.630Z,15.10
2017-10-02T13:27:53.908Z,15.20
2017-10-02T13:30:22.958Z,15.20
2017-10-02T13:32:51.278Z,15.10
2017-10-02T13:35:19.560Z,15.00
2017-10-02T13:37:47.862Z,14.80
2017-10-02T13:40:16.147Z,14.60
2017-10-02T13:42:45.193Z,14.30
2017-10-02T13:45:13.495Z,14.30
2017-10-02T13:47:41.770Z,14.30
2017-10-02T13:50:10.058Z,14.90
2017-10-02T13:52:39.123Z,16.70
2017-10-02T13:55:07.434Z,16.70
2017-10-02T13:57:35.723Z,17.20
2017-10-02T14:00:04.034Z,17.40
2017-10-02T14:02:32.549Z,17.40
2017-10-02T14:05:00.828Z,16.90
2017-10-02T14:07:29.118Z,16.20
2017-10-02T14:09:57.480Z,15.70
2017-10-02T14:12:25.751Z,15.20
2017-10-02T14:14:54.025Z,15.10
2017-10-02T14:17:22.307Z,15.00
2017-10-02T14:19:50.734Z,14.90
2017-10-02T14:22:19.022Z,14.80
2017-10-02T14:24:47.307Z,14.90
2017-10-02T14:27:16.354Z,14.80
2017-10-02T14:29:44.654Z,14.80
2017-10-02T14:32:12.941Z,14.80
2017-10-02T14:34:41.226Z,14.70
2017-10-02T14:37:10.312Z,14.60
2017-10-02T14:39:38.607Z,14.60
2017-10-02T14:42:06.901Z,14.50
2017-10-02T14:44:35.181Z,14.40
2017-10-02T14:47:03.471Z,14.20
2017-10-02T14:49:31.764Z,14.20
2017-10-02T14:52:00.817Z,14.00
2017-10-02T14:54:29.154Z,14.00
2017-10-02T14:56:57.447Z,14.00
2017-10-02T14:59:25.743Z,14.20
2017-10-02T15:01:54.038Z,14.30
2017-10-02T15:04:22.322Z,14.30
2017-10-02T15:06:50.639Z,14.40
2017-10-02T15:09:18.926Z,15.00
2017-10-02T15:11:47.221Z,15.10
2017-10-02T15:14:15.516Z,14.80
2017-10-02T15:16:43.799Z,14.50
2017-10-02T15:19:12.882Z,13.90
2017-10-02T15:21:41.169Z,13.90
2017-10-02T15:24:09.478Z,13.80
2017-10-02T15:26:37.777Z,13.70
2017-10-02T15:29:06.073Z,13.70
2017-10-02T15:31:34.415Z,13.80
2017-10-02T15:34:03.478Z,13.80
2017-10-02T15:36:34.982Z,13.80
2017-10-02T15:39:00.999Z,13.90
2017-10-02T15:41:29.295Z,13.90
2017-10-02T15:43:57.588Z,14.00
2017-10-02T15:46:25.896Z,14.00
2017-10-02T15:48:54.208Z,13.90
2017-10-02T15:51:22.503Z,13.90
2017-10-02T15:53:51.281Z,13.80
2017-10-02T15:56:20.346Z,13.70
2017-10-02T15:58:48.686Z,13.70
2017-10-02T16:01:16.977Z,13.70
2017-10-02T16:03:45.285Z,13.60
2017-10-02T16:06:13.608Z,13.60
2017-10-02T16:08:42.662Z,13.40
2017-10-02T16:11:11.015Z,13.40
2017-10-02T16:13:40.089Z,13.30
2017-10-02T16:16:08.463Z,13.30
2017-10-02T16:18:37.553Z,13.20
2017-10-02T16:21:05.847Z,13.20
2017-10-02T16:23:34.262Z,13.20
2017-10-02T16:26:02.590Z,13.20
2017-10-02T16:28:31.642Z,13.00
2017-10-02T16:30:59.974Z,13.00
2017-10-02T16:33:28.261Z,12.90
2017-10-02T16:35:56.588Z,12.90
2017-10-02T16:38:24.872Z,12.90
2017-10-02T16:40:53.167Z,12.70
2017-10-02T16:43:21.499Z,12.80
2017-10-02T16:45:49.779Z,12.70
2017-10-02T16:48:18.131Z,12.70
2017-10-02T16:50:46.427Z,12.70
2017-10-02T16:53:15.473Z,12.60
2017-10-02T16:55:43.780Z,12.60
2017-10-02T16:58:12.082Z,12.60
2017-10-02T17:00:40.409Z,12.60
2017-10-02T17:03:08.751Z,12.50
2017-10-02T17:05:37.830Z,12.50
2017-10-02T17:08:06.123Z,12.40
2017-10-02T17:10:34.438Z,12.50
2017-10-02T17:13:02.753Z,12.50
2017-10-02T17:15:31.041Z,12.40
2017-10-02T17:17:59.361Z,12.40
2017-10-02T17:20:27.690Z,12.40
2017-10-02T17:22:56.058Z,12.30
2017-10-02T17:25:25.126Z,12.40
2017-10-02T17:27:53.438Z,12.30
2017-10-02T17:30:21.806Z,12.40
2017-10-02T17:32:50.851Z,12.40
2017-10-02T17:35:19.191Z,12.30
2017-10-02T17:37:47.516Z,12.30
2017-10-02T17:40:15.802Z,12.30
2017-10-02T17:42:44.091Z,12.30
2017-10-02T17:45:12.471Z,12.30
2017-10-02T17:47:40.776Z,12.30
2017-10-02T17:50:09.106Z,12.20
2017-10-02T17:52:37.423Z,12.20
2017-10-02T17:55:05.743Z,12.20
2017-10-02T17:57:34.047Z,12.20
2017-10-02T18:00:03.670Z,12.20
2017-10-02T18:02:32.605Z,12.20
2017-10-02T18:05:01.000Z,12.20
2017-10-02T18:07:29.389Z,12.20
2017-10-02T18:09:57.686Z,12.20
2017-10-02T18:12:25.987Z,12.20
2017-10-02T18:14:54.325Z,12.20
2017-10-02T18:17:22.639Z,12.30
2017-10-02T18:19:50.933Z,12.30
2017-10-02T18:22:19.262Z,12.30
2017-10-02T18:24:47.554Z,12.30
2017-10-02T18:27:15.870Z,12.20
2017-10-02T18:29:44.166Z,12.30
2017-10-02T18:32:12.479Z,12.30
2017-10-02T18:34:40.807Z,12.30
2017-10-02T18:37:09.285Z,12.30
2017-10-02T18:39:37.715Z,12.30
2017-10-02T18:42:06.138Z,12.30
2017-10-02T18:44:34.558Z,12.30
2017-10-02T18:47:02.869Z,12.30
2017-10-02T18:49:31.295Z,12.30
2017-10-02T18:51:59.618Z,12.30
2017-10-02T18:54:27.910Z,12.30
2017-10-02T18:56:56.273Z,12.30
2017-10-02T18:59:24.579Z,12.30
2017-10-02T19:01:52.894Z,12.30
2017-10-02T19:04:21.193Z,12.20
2017-10-02T19:06:49.869Z,12.20
2017-10-02T19:09:18.965Z,12.20
2017-10-02T19:11:47.466Z,12.20
2017-10-02T19:14:15.865Z,12.20
2017-10-02T19:16:44.154Z,12.20
2017-10-02T19:19:12.487Z,12.20
2017-10-02T19:21:40.830Z,12.20
2017-10-02T19:24:09.191Z,12.20
2017-10-02T19:26:38.338Z,12.20
2017-10-02T19:29:06.934Z,12.20
2017-10-02T19:31:45.276Z,12.10
2017-10-02T19:34:42.845Z,12.10
2017-10-02T19:37:16.993Z,12.10
2017-10-02T19:40:02.360Z,12.10
2017-10-02T19:42:35.242Z,12.10
2017-10-02T19:48:15.276Z,12.10
2017-10-02T19:50:53.326Z,12.00
2017-10-02T19:53:27.229Z,11.90
2017-10-02T19:56:00.378Z,11.90
2017-10-02T19:58:29.572Z,11.90
2017-10-02T20:00:57.996Z,11.80
2017-10-02T20:03:26.422Z,11.80
2017-10-02T20:05:54.796Z,11.80
2017-10-02T20:08:23.261Z,11.80
2017-10-02T20:10:51.736Z,11.70
2017-10-02T20:13:20.820Z,11.70
2017-10-02T20:16:02.885Z,11.70
2017-10-02T20:18:32.076Z,11.70
2017-10-02T20:21:00.498Z,11.70
2017-10-02T20:23:28.963Z,11.70
2017-10-02T20:25:57.363Z,11.80
2017-10-02T20:28:25.928Z,11.70
2017-10-02T20:30:54.339Z,11.70
2017-10-02T20:33:22.671Z,11.70
2017-10-02T20:35:51.770Z,11.70
2017-10-02T20:38:20.094Z,11.70
2017-10-02T20:40:48.438Z,11.70
2017-10-02T20:43:16.747Z,11.70
2017-10-02T20:45:45.105Z,11.70
2017-10-02T20:48:13.510Z,11.70
2017-10-02T20:50:41.950Z,11.70
2017-10-02T20:53:10.555Z,11.70
2017-10-02T20:55:38.988Z,11.60
2017-10-02T20:58:08.181Z,11.50
2017-10-02T21:00:36.596Z,11.40
2017-10-02T21:03:04.992Z,11.40
2017-10-02T21:05:33.426Z,11.40
2017-10-02T21:08:02.547Z,11.40
2017-10-02T21:10:30.923Z,11.30
2017-10-02T21:12:59.374Z,11.30
2017-10-02T21:15:28.671Z,11.10
2017-10-02T21:17:57.156Z,11.10
2017-10-02T21:20:25.569Z,11.00
2017-10-02T21:22:53.933Z,10.90
2017-10-02T21:25:22.341Z,10.90
2017-10-02T21:27:50.730Z,10.80
2017-10-02T21:30:19.099Z,10.80
2017-10-02T21:32:47.486Z,10.70
2017-10-02T21:35:15.946Z,10.70
2017-10-02T21:37:44.344Z,10.70
2017-10-02T21:40:12.765Z,10.70
2017-10-02T21:42:41.185Z,10.70
2017-10-02T21:45:09.614Z,10.60
2017-10-02T21:47:38.048Z,10.60
2017-10-02T21:50:06.431Z,10.60
2017-10-02T21:52:34.835Z,10.60
2017-10-02T21:55:03.275Z,10.50
2017-10-02T21:57:31.630Z,10.50
2017-10-02T22:00:00.784Z,10.60
2017-10-02T22:02:29.336Z,10.60
2017-10-02T22:04:57.775Z,10.60
2017-10-02T22:07:27.826Z,10.60
2017-10-02T22:09:57.851Z,10.50
2017-10-02T22:12:26.279Z,10.50
2017-10-02T22:14:56.625Z,10.50
2017-10-02T22:17:25.169Z,10.50
2017-10-02T22:19:53.545Z,10.50
2017-10-02T22:22:22.878Z,10.50
2017-10-02T22:24:51.247Z,10.40
2017-10-02T22:27:19.771Z,10.40
2017-10-02T22:29:48.136Z,10.40
2017-10-02T22:32:16.573Z,10.30
2017-10-02T22:34:44.910Z,10.30
2017-10-02T22:37:13.265Z,10.30
2017-10-02T22:39:41.644Z,10.30
2017-10-02T22:42:10.034Z,10.20
2017-10-02T22:44:38.424Z,10.20
2017-10-02T22:47:06.916Z,10.10
2017-10-02T22:49:35.393Z,10.10
2017-10-02T22:52:03.759Z,10.00
2017-10-02T22:54:32.866Z,9.80
2017-10-02T22:57:01.240Z,9.80
2017-10-02T22:59:29.673Z,9.70
2017-10-02T23:01:58.078Z,9.60
2017-10-02T23:04:26.457Z,9.60
2017-10-02T23:06:55.675Z,9.40
2017-10-02T23:09:24.123Z,9.40
2017-10-02T23:11:52.499Z,9.40
2017-10-02T23:14:20.882Z,9.30
2017-10-02T23:16:51.982Z,9.30
2017-10-02T23:19:20.374Z,9.20
2017-10-02T23:21:48.723Z,9.10
2017-10-02T23:24:17.134Z,9.10
2017-10-02T23:26:45.515Z,9.10
2017-10-02T23:29:13.934Z,9.00
2017-10-02T23:31:43.264Z,9.00
2017-10-02T23:34:11.723Z,9.00
2017-10-02T23:36:40.932Z,9.00
2017-10-02T23:39:10.042Z,8.90
2017-10-02T23:41:38.422Z,8.90
2017-10-02T23:44:06.799Z,8.90
2017-10-02T23:46:35.228Z,8.90
2017-10-02T23:49:03.615Z,8.80
2017-10-02T23:51:31.985Z,8.80
2017-10-02T23:54:00.415Z,8.80
2017-10-02T23:56:28.899Z,8.80
2017-10-02T23:58:57.328Z,8.80
